sensor_id;sensor_type;location;lat;lon;timestamp;temperature;humidity
11925;DHT22;6022;48.768;18.608;2024-02-14T00:00:13;1.20;99.90
11925;DHT22;6022;48.768;18.608;2024-02-14T00:02:46;1.60;99.90
11925;DHT22;6022;48.768;18.608;2024-02-14T00:05:17;1.50;99.90
11925;DHT22;6022;48.768;18.608;2024-02-14T00:07:46;1.50;99.90
11925;DHT22;6022;48.768;18.608;2024-02-14T00:10:14;1.70;99.90
11925;DHT22;6022;48.768;18.608;2024-02-14T00:12:42;1.60;99.90
11925;DHT22;6022;48.768;18.608;2024-02-14T00:15:12;1.70;99.90
11925;DHT22;6022;48.768;18.608;2024-02-14T00:17:39;1.60;99.90
11925;DHT22;6022;48.768;18.608;2024-02-14T00:20:09;1.30;99.90
11925;DHT22;6022;48.768;18.608;2024-02-14T00:22:40;1.40;99.90
11925;DHT22;6022;48.768;18.608;2024-02-14T00:25:08;1.40;99.90
11925;DHT22;6022;48.768;18.608;2024-02-14T00:27:37;1.40;99.90
11925;DHT22;6022;48.768;18.608;2024-02-14T00:30:09;1.50;99.90
11925;DHT22;6022;48.768;18.608;2024-02-14T00:32:38;1.50;99.90
11925;DHT22;6022;48.768;18.608;2024-02-14T00:35:06;1.30;99.90
11925;DHT22;6022;48.768;18.608;2024-02-14T00:37:35;1.30;99.90
11925;DHT22;6022;48.768;18.608;2024-02-14T00:40:03;1.20;99.90
11925;DHT22;6022;48.768;18.608;2024-02-14T00:42:31;1.20;99.90
11925;DHT22;6022;48.768;18.608;2024-02-14T00:45:01;1.30;99.90
11925;DHT22;6022;48.768;18.608;2024-02-14T00:47:32;1.40;99.90
11925;DHT22;6022;48.768;18.608;2024-02-14T00:50:02;1.30;99.90
11925;DHT22;6022;48.768;18.608;2024-02-14T00:52:30;0.80;99.90
11925;DHT22;6022;48.768;18.608;2024-02-14T00:54:59;1.00;99.90
11925;DHT22;6022;48.768;18.608;2024-02-14T00:57:32;1.10;99.90
11925;DHT22;6022;48.768;18.608;2024-02-14T01:00:00;1.00;99.90
11925;DHT22;6022;48.768;18.608;2024-02-14T01:02:28;1.30;99.90
11925;DHT22;6022;48.768;18.608;2024-02-14T01:04:57;1.20;99.90
11925;DHT22;6022;48.768;18.608;2024-02-14T01:07:26;1.20;99.90
11925;DHT22;6022;48.768;18.608;2024-02-14T01:09:55;0.70;99.90
11925;DHT22;6022;48.768;18.608;2024-02-14T01:12:25;1.00;99.90
11925;DHT22;6022;48.768;18.608;2024-02-14T01:14:54;0.90;99.90
11925;DHT22;6022;48.768;18.608;2024-02-14T01:17:21;0.80;99.90
11925;DHT22;6022;48.768;18.608;2024-02-14T01:19:50;0.70;99.90
11925;DHT22;6022;48.768;18.608;2024-02-14T01:22:19;1.10;99.90
11925;DHT22;6022;48.768;18.608;2024-02-14T01:24:47;0.80;99.90
11925;DHT22;6022;48.768;18.608;2024-02-14T01:27:15;0.90;99.90
11925;DHT22;6022;48.768;18.608;2024-02-14T01:29:44;0.80;99.90
11925;DHT22;6022;48.768;18.608;2024-02-14T01:32:13;0.80;99.90
11925;DHT22;6022;48.768;18.608;2024-02-14T01:34:40;0.80;99.90
11925;DHT22;6022;48.768;18.608;2024-02-14T01:37:10;0.80;99.90
11925;DHT22;6022;48.768;18.608;2024-02-14T01:39:38;1.00;99.90
11925;DHT22;6022;48.768;18.608;2024-02-14T01:42:06;0.80;99.90
11925;DHT22;6022;48.768;18.608;2024-02-14T01:44:35;0.60;99.90
11925;DHT22;6022;48.768;18.608;2024-02-14T01:47:05;0.80;99.90
11925;DHT22;6022;48.768;18.608;2024-02-14T01:49:34;0.80;99.90
11925;DHT22;6022;48.768;18.608;2024-02-14T01:52:04;0.80;99.90
11925;DHT22;6022;48.768;18.608;2024-02-14T01:54:33;0.50;99.90
11925;DHT22;6022;48.768;18.608;2024-02-14T01:57:03;0.80;99.90
11925;DHT22;6022;48.768;18.608;2024-02-14T01:59:33;0.60;99.90
11925;DHT22;6022;48.768;18.608;2024-02-14T02:02:04;0.40;99.90
11925;DHT22;6022;48.768;18.608;2024-02-14T02:04:36;0.40;99.90
11925;DHT22;6022;48.768;18.608;2024-02-14T02:07:04;0.40;99.90
11925;DHT22;6022;48.768;18.608;2024-02-14T02:09:32;0.70;99.90
11925;DHT22;6022;48.768;18.608;2024-02-14T02:12:03;0.70;99.90
11925;DHT22;6022;48.768;18.608;2024-02-14T02:14:35;0.50;99.90
11925;DHT22;6022;48.768;18.608;2024-02-14T02:17:03;0.30;99.90
11925;DHT22;6022;48.768;18.608;2024-02-14T02:19:35;0.30;99.90
11925;DHT22;6022;48.768;18.608;2024-02-14T02:22:03;0.40;99.90
11925;DHT22;6022;48.768;18.608;2024-02-14T02:24:32;0.50;99.90
11925;DHT22;6022;48.768;18.608;2024-02-14T02:27:01;0.60;99.90
11925;DHT22;6022;48.768;18.608;2024-02-14T02:29:30;0.70;99.90
11925;DHT22;6022;48.768;18.608;2024-02-14T02:31:59;0.30;99.90
11925;DHT22;6022;48.768;18.608;2024-02-14T02:34:29;0.40;99.90
11925;DHT22;6022;48.768;18.608;2024-02-14T02:36:58;0.40;99.90
11925;DHT22;6022;48.768;18.608;2024-02-14T02:39:26;0.50;99.90
11925;DHT22;6022;48.768;18.608;2024-02-14T02:41:54;0.70;99.90
11925;DHT22;6022;48.768;18.608;2024-02-14T02:44:24;0.10;99.90
11925;DHT22;6022;48.768;18.608;2024-02-14T02:46:54;0.50;99.90
11925;DHT22;6022;48.768;18.608;2024-02-14T02:49:23;0.30;99.90
11925;DHT22;6022;48.768;18.608;2024-02-14T02:51:52;0.20;99.90
11925;DHT22;6022;48.768;18.608;2024-02-14T02:54:21;0.50;99.90
11925;DHT22;6022;48.768;18.608;2024-02-14T02:56:50;0.30;99.90
11925;DHT22;6022;48.768;18.608;2024-02-14T02:59:19;0.40;99.90
11925;DHT22;6022;48.768;18.608;2024-02-14T03:01:47;0.20;99.90
11925;DHT22;6022;48.768;18.608;2024-02-14T03:04:17;0.20;99.90
11925;DHT22;6022;48.768;18.608;2024-02-14T03:06:46;0.00;99.90
11925;DHT22;6022;48.768;18.608;2024-02-14T03:09:15;-0.10;99.90
11925;DHT22;6022;48.768;18.608;2024-02-14T03:11:48;0.00;99.90
11925;DHT22;6022;48.768;18.608;2024-02-14T03:14:17;0.00;99.90
11925;DHT22;6022;48.768;18.608;2024-02-14T03:16:45;-0.30;99.90
11925;DHT22;6022;48.768;18.608;2024-02-14T03:19:13;-0.10;99.90
11925;DHT22;6022;48.768;18.608;2024-02-14T03:21:42;0.30;99.90
11925;DHT22;6022;48.768;18.608;2024-02-14T03:24:13;0.20;99.90
11925;DHT22;6022;48.768;18.608;2024-02-14T03:26:42;0.10;99.90
11925;DHT22;6022;48.768;18.608;2024-02-14T03:29:12;0.00;99.90
11925;DHT22;6022;48.768;18.608;2024-02-14T03:31:41;0.10;99.90
11925;DHT22;6022;48.768;18.608;2024-02-14T03:34:11;0.00;99.90
11925;DHT22;6022;48.768;18.608;2024-02-14T03:36:39;0.30;99.90
11925;DHT22;6022;48.768;18.608;2024-02-14T03:39:08;0.10;99.90
11925;DHT22;6022;48.768;18.608;2024-02-14T03:41:37;0.30;99.90
11925;DHT22;6022;48.768;18.608;2024-02-14T03:44:08;0.40;99.90
11925;DHT22;6022;48.768;18.608;2024-02-14T03:46:37;-0.20;99.90
11925;DHT22;6022;48.768;18.608;2024-02-14T03:49:06;-0.20;99.90
11925;DHT22;6022;48.768;18.608;2024-02-14T03:51:35;-0.20;99.90
11925;DHT22;6022;48.768;18.608;2024-02-14T03:54:04;-0.40;99.90
11925;DHT22;6022;48.768;18.608;2024-02-14T03:56:34;-0.30;99.90
11925;DHT22;6022;48.768;18.608;2024-02-14T03:59:04;-0.20;99.90
11925;DHT22;6022;48.768;18.608;2024-02-14T04:01:33;-0.30;99.90
11925;DHT22;6022;48.768;18.608;2024-02-14T04:04:01;-0.30;99.90
11925;DHT22;6022;48.768;18.608;2024-02-14T04:06:29;-0.20;99.90
11925;DHT22;6022;48.768;18.608;2024-02-14T04:09:00;-0.10;99.90
11925;DHT22;6022;48.768;18.608;2024-02-14T04:11:28;0.00;99.90
11925;DHT22;6022;48.768;18.608;2024-02-14T04:13:56;-0.20;99.90
11925;DHT22;6022;48.768;18.608;2024-02-14T04:16:24;-0.20;99.90
11925;DHT22;6022;48.768;18.608;2024-02-14T04:18:53;-0.30;99.90
11925;DHT22;6022;48.768;18.608;2024-02-14T04:21:24;-0.20;99.90
11925;DHT22;6022;48.768;18.608;2024-02-14T04:23:52;0.00;99.90
11925;DHT22;6022;48.768;18.608;2024-02-14T04:26:21;-0.20;99.90
11925;DHT22;6022;48.768;18.608;2024-02-14T04:28:49;-0.20;99.90
11925;DHT22;6022;48.768;18.608;2024-02-14T04:31:17;-0.10;99.90
11925;DHT22;6022;48.768;18.608;2024-02-14T04:33:46;-0.70;99.90
11925;DHT22;6022;48.768;18.608;2024-02-14T04:36:20;-0.10;99.90
11925;DHT22;6022;48.768;18.608;2024-02-14T04:38:50;-0.50;99.90
11925;DHT22;6022;48.768;18.608;2024-02-14T04:41:19;-0.50;99.90
11925;DHT22;6022;48.768;18.608;2024-02-14T04:43:48;-0.80;99.90
11925;DHT22;6022;48.768;18.608;2024-02-14T04:46:17;-0.70;99.90
11925;DHT22;6022;48.768;18.608;2024-02-14T04:48:44;-0.50;99.90
11925;DHT22;6022;48.768;18.608;2024-02-14T04:51:13;-0.50;99.90
11925;DHT22;6022;48.768;18.608;2024-02-14T04:53:41;-0.60;99.90
11925;DHT22;6022;48.768;18.608;2024-02-14T04:56:10;-0.90;99.90
11925;DHT22;6022;48.768;18.608;2024-02-14T04:58:38;-0.60;99.90
11925;DHT22;6022;48.768;18.608;2024-02-14T05:01:07;-0.70;99.90
11925;DHT22;6022;48.768;18.608;2024-02-14T05:03:35;-0.50;99.90
11925;DHT22;6022;48.768;18.608;2024-02-14T05:06:04;-0.60;99.90
11925;DHT22;6022;48.768;18.608;2024-02-14T05:08:33;-0.50;99.90
11925;DHT22;6022;48.768;18.608;2024-02-14T05:11:00;-0.60;99.90
11925;DHT22;6022;48.768;18.608;2024-02-14T05:13:34;-0.60;99.90
11925;DHT22;6022;48.768;18.608;2024-02-14T05:16:05;-0.70;99.90
11925;DHT22;6022;48.768;18.608;2024-02-14T05:18:38;-0.70;99.90
11925;DHT22;6022;48.768;18.608;2024-02-14T05:21:07;-0.80;99.90
11925;DHT22;6022;48.768;18.608;2024-02-14T05:23:35;-0.80;99.90
11925;DHT22;6022;48.768;18.608;2024-02-14T05:26:04;-1.10;99.90
11925;DHT22;6022;48.768;18.608;2024-02-14T05:28:32;-0.70;99.90
11925;DHT22;6022;48.768;18.608;2024-02-14T05:31:01;-0.50;99.90
11925;DHT22;6022;48.768;18.608;2024-02-14T05:33:30;-0.70;99.90
11925;DHT22;6022;48.768;18.608;2024-02-14T05:35:59;-0.70;99.90
11925;DHT22;6022;48.768;18.608;2024-02-14T05:38:27;-0.70;99.90
11925;DHT22;6022;48.768;18.608;2024-02-14T05:41:01;-1.00;99.90
11925;DHT22;6022;48.768;18.608;2024-02-14T05:43:29;-0.60;99.90
11925;DHT22;6022;48.768;18.608;2024-02-14T05:45:57;-0.70;99.90
11925;DHT22;6022;48.768;18.608;2024-02-14T05:48:24;-1.10;99.90
11925;DHT22;6022;48.768;18.608;2024-02-14T05:50:53;-0.70;99.90
11925;DHT22;6022;48.768;18.608;2024-02-14T05:53:20;-0.60;99.90
11925;DHT22;6022;48.768;18.608;2024-02-14T05:55:48;-0.70;99.90
11925;DHT22;6022;48.768;18.608;2024-02-14T05:58:16;-1.20;99.90
11925;DHT22;6022;48.768;18.608;2024-02-14T06:00:44;-0.70;99.90
11925;DHT22;6022;48.768;18.608;2024-02-14T06:03:12;-0.90;99.90
11925;DHT22;6022;48.768;18.608;2024-02-14T06:05:40;-1.00;99.90
11925;DHT22;6022;48.768;18.608;2024-02-14T06:08:08;-0.90;99.90
11925;DHT22;6022;48.768;18.608;2024-02-14T06:10:36;-0.90;99.90
11925;DHT22;6022;48.768;18.608;2024-02-14T06:13:05;-0.90;99.90
11925;DHT22;6022;48.768;18.608;2024-02-14T06:15:33;-0.90;99.90
11925;DHT22;6022;48.768;18.608;2024-02-14T06:18:01;-0.80;99.90
11925;DHT22;6022;48.768;18.608;2024-02-14T06:20:29;-0.70;99.90
11925;DHT22;6022;48.768;18.608;2024-02-14T06:22:56;-0.60;99.90
11925;DHT22;6022;48.768;18.608;2024-02-14T06:25:31;-0.80;99.90
11925;DHT22;6022;48.768;18.608;2024-02-14T06:28:00;-0.50;99.90
11925;DHT22;6022;48.768;18.608;2024-02-14T06:30:27;-0.20;99.90
11925;DHT22;6022;48.768;18.608;2024-02-14T06:32:59;-0.20;99.90
11925;DHT22;6022;48.768;18.608;2024-02-14T06:35:29;0.20;99.90
11925;DHT22;6022;48.768;18.608;2024-02-14T06:37:58;-0.30;99.90
11925;DHT22;6022;48.768;18.608;2024-02-14T06:40:34;0.00;99.90
11925;DHT22;6022;48.768;18.608;2024-02-14T06:43:01;0.30;99.90
11925;DHT22;6022;48.768;18.608;2024-02-14T06:45:38;0.10;99.90
11925;DHT22;6022;48.768;18.608;2024-02-14T06:48:07;0.20;99.90
11925;DHT22;6022;48.768;18.608;2024-02-14T06:50:36;0.20;99.90
11925;DHT22;6022;48.768;18.608;2024-02-14T06:53:04;0.30;99.90
11925;DHT22;6022;48.768;18.608;2024-02-14T06:55:34;0.30;99.90
11925;DHT22;6022;48.768;18.608;2024-02-14T06:58:01;0.60;99.90
11925;DHT22;6022;48.768;18.608;2024-02-14T07:00:33;0.30;99.90
11925;DHT22;6022;48.768;18.608;2024-02-14T07:03:00;0.50;99.90
11925;DHT22;6022;48.768;18.608;2024-02-14T07:05:28;0.60;99.90
11925;DHT22;6022;48.768;18.608;2024-02-14T07:07:56;0.60;99.90
11925;DHT22;6022;48.768;18.608;2024-02-14T07:10:24;0.80;99.90
11925;DHT22;6022;48.768;18.608;2024-02-14T07:12:51;1.50;99.90
11925;DHT22;6022;48.768;18.608;2024-02-14T07:15:19;1.50;99.90
11925;DHT22;6022;48.768;18.608;2024-02-14T07:17:47;2.00;99.90
11925;DHT22;6022;48.768;18.608;2024-02-14T07:20:15;2.20;99.90
11925;DHT22;6022;48.768;18.608;2024-02-14T07:22:44;2.20;99.90
11925;DHT22;6022;48.768;18.608;2024-02-14T07:25:14;2.30;99.90
11925;DHT22;6022;48.768;18.608;2024-02-14T07:27:49;2.40;99.90
11925;DHT22;6022;48.768;18.608;2024-02-14T07:30:16;2.20;99.90
11925;DHT22;6022;48.768;18.608;2024-02-14T07:32:45;2.30;99.90
11925;DHT22;6022;48.768;18.608;2024-02-14T07:35:13;2.30;99.90
11925;DHT22;6022;48.768;18.608;2024-02-14T07:37:42;2.50;99.90
11925;DHT22;6022;48.768;18.608;2024-02-14T07:40:11;2.50;99.90
11925;DHT22;6022;48.768;18.608;2024-02-14T07:42:42;2.50;99.90
11925;DHT22;6022;48.768;18.608;2024-02-14T07:45:10;2.50;99.90
11925;DHT22;6022;48.768;18.608;2024-02-14T07:47:38;2.50;99.90
11925;DHT22;6022;48.768;18.608;2024-02-14T07:50:07;2.30;99.90
11925;DHT22;6022;48.768;18.608;2024-02-14T07:52:35;2.40;99.90
11925;DHT22;6022;48.768;18.608;2024-02-14T07:55:04;2.50;99.90
11925;DHT22;6022;48.768;18.608;2024-02-14T07:57:31;3.20;99.90
11925;DHT22;6022;48.768;18.608;2024-02-14T08:00:00;3.20;99.90
11925;DHT22;6022;48.768;18.608;2024-02-14T08:02:27;3.40;99.90
11925;DHT22;6022;48.768;18.608;2024-02-14T08:04:56;3.90;99.90
11925;DHT22;6022;48.768;18.608;2024-02-14T08:07:27;4.50;99.90
11925;DHT22;6022;48.768;18.608;2024-02-14T08:09:56;4.80;99.90
11925;DHT22;6022;48.768;18.608;2024-02-14T08:12:26;5.30;99.90
11925;DHT22;6022;48.768;18.608;2024-02-14T08:14:54;5.30;99.90
11925;DHT22;6022;48.768;18.608;2024-02-14T08:17:23;6.40;99.90
11925;DHT22;6022;48.768;18.608;2024-02-14T08:19:51;6.60;99.90
11925;DHT22;6022;48.768;18.608;2024-02-14T08:22:20;7.10;99.90
11925;DHT22;6022;48.768;18.608;2024-02-14T08:24:49;8.00;99.90
11925;DHT22;6022;48.768;18.608;2024-02-14T08:27:17;8.00;99.90
11925;DHT22;6022;48.768;18.608;2024-02-14T08:29:46;7.90;99.90
11925;DHT22;6022;48.768;18.608;2024-02-14T08:32:14;8.30;99.90
11925;DHT22;6022;48.768;18.608;2024-02-14T08:34:41;8.20;99.90
11925;DHT22;6022;48.768;18.608;2024-02-14T08:37:09;8.50;99.90
11925;DHT22;6022;48.768;18.608;2024-02-14T08:39:37;8.60;99.90
11925;DHT22;6022;48.768;18.608;2024-02-14T08:42:05;8.50;99.90
11925;DHT22;6022;48.768;18.608;2024-02-14T08:44:35;9.00;99.90
11925;DHT22;6022;48.768;18.608;2024-02-14T08:47:06;8.80;99.90
11925;DHT22;6022;48.768;18.608;2024-02-14T08:49:33;9.10;99.90
11925;DHT22;6022;48.768;18.608;2024-02-14T08:52:01;8.80;99.90
11925;DHT22;6022;48.768;18.608;2024-02-14T08:54:31;9.20;99.90
11925;DHT22;6022;48.768;18.608;2024-02-14T08:57:00;9.30;99.90
11925;DHT22;6022;48.768;18.608;2024-02-14T08:59:31;9.40;99.90
11925;DHT22;6022;48.768;18.608;2024-02-14T09:01:58;9.40;99.90
11925;DHT22;6022;48.768;18.608;2024-02-14T09:04:25;9.50;99.90
11925;DHT22;6022;48.768;18.608;2024-02-14T09:06:54;9.50;99.90
11925;DHT22;6022;48.768;18.608;2024-02-14T09:09:22;9.70;99.90
11925;DHT22;6022;48.768;18.608;2024-02-14T09:11:50;9.60;99.90
11925;DHT22;6022;48.768;18.608;2024-02-14T09:14:18;10.00;99.90
11925;DHT22;6022;48.768;18.608;2024-02-14T09:16:46;9.90;99.90
11925;DHT22;6022;48.768;18.608;2024-02-14T09:19:14;10.10;99.90
11925;DHT22;6022;48.768;18.608;2024-02-14T09:21:44;10.10;99.90
11925;DHT22;6022;48.768;18.608;2024-02-14T09:24:12;10.20;99.90
11925;DHT22;6022;48.768;18.608;2024-02-14T09:26:40;10.20;99.90
11925;DHT22;6022;48.768;18.608;2024-02-14T09:29:10;10.10;99.90
11925;DHT22;6022;48.768;18.608;2024-02-14T09:31:38;10.30;99.90
11925;DHT22;6022;48.768;18.608;2024-02-14T09:34:06;10.40;99.90
11925;DHT22;6022;48.768;18.608;2024-02-14T09:36:38;10.30;99.90
11925;DHT22;6022;48.768;18.608;2024-02-14T09:39:06;10.20;99.90
11925;DHT22;6022;48.768;18.608;2024-02-14T09:41:41;10.60;99.90
11925;DHT22;6022;48.768;18.608;2024-02-14T09:44:11;10.40;99.90
11925;DHT22;6022;48.768;18.608;2024-02-14T09:46:38;10.40;99.90
11925;DHT22;6022;48.768;18.608;2024-02-14T09:49:07;10.30;99.90
11925;DHT22;6022;48.768;18.608;2024-02-14T09:51:37;11.00;99.90
11925;DHT22;6022;48.768;18.608;2024-02-14T09:54:07;10.70;99.90
11925;DHT22;6022;48.768;18.608;2024-02-14T09:56:36;11.40;99.90
11925;DHT22;6022;48.768;18.608;2024-02-14T09:59:04;11.40;99.90
11925;DHT22;6022;48.768;18.608;2024-02-14T10:01:35;11.40;99.90
11925;DHT22;6022;48.768;18.608;2024-02-14T10:04:03;11.60;98.80
11925;DHT22;6022;48.768;18.608;2024-02-14T10:06:31;12.00;98.90
11925;DHT22;6022;48.768;18.608;2024-02-14T10:09:01;11.80;97.30
11925;DHT22;6022;48.768;18.608;2024-02-14T10:11:35;11.90;98.70
11925;DHT22;6022;48.768;18.608;2024-02-14T10:14:06;11.80;99.90
11925;DHT22;6022;48.768;18.608;2024-02-14T10:16:36;11.70;99.50
11925;DHT22;6022;48.768;18.608;2024-02-14T10:19:04;11.40;99.90
11925;DHT22;6022;48.768;18.608;2024-02-14T10:21:35;11.50;99.90
11925;DHT22;6022;48.768;18.608;2024-02-14T10:24:04;11.70;99.90
11925;DHT22;6022;48.768;18.608;2024-02-14T10:26:32;11.50;99.10
11925;DHT22;6022;48.768;18.608;2024-02-14T10:29:00;11.30;96.00
11925;DHT22;6022;48.768;18.608;2024-02-14T10:31:27;11.40;96.80
11925;DHT22;6022;48.768;18.608;2024-02-14T10:33:55;11.40;95.60
11925;DHT22;6022;48.768;18.608;2024-02-14T10:36:24;11.40;94.80
11925;DHT22;6022;48.768;18.608;2024-02-14T10:38:53;11.20;97.90
11925;DHT22;6022;48.768;18.608;2024-02-14T10:41:24;11.10;98.80
11925;DHT22;6022;48.768;18.608;2024-02-14T10:43:51;11.00;94.10
11925;DHT22;6022;48.768;18.608;2024-02-14T10:46:20;10.70;94.60
11925;DHT22;6022;48.768;18.608;2024-02-14T10:48:54;10.80;93.90
11925;DHT22;6022;48.768;18.608;2024-02-14T10:51:32;10.80;95.20
11925;DHT22;6022;48.768;18.608;2024-02-14T10:54:10;10.50;93.10
11925;DHT22;6022;48.768;18.608;2024-02-14T10:56:49;10.80;93.10
11925;DHT22;6022;48.768;18.608;2024-02-14T10:59:20;11.00;93.90
11925;DHT22;6022;48.768;18.608;2024-02-14T11:01:51;11.10;92.70
11925;DHT22;6022;48.768;18.608;2024-02-14T11:04:20;11.00;92.50
11925;DHT22;6022;48.768;18.608;2024-02-14T11:06:51;11.00;92.20
11925;DHT22;6022;48.768;18.608;2024-02-14T11:09:40;11.50;92.60
11925;DHT22;6022;48.768;18.608;2024-02-14T11:12:10;11.90;92.80
11925;DHT22;6022;48.768;18.608;2024-02-14T11:14:42;11.70;92.80
11925;DHT22;6022;48.768;18.608;2024-02-14T11:17:13;11.80;90.20
11925;DHT22;6022;48.768;18.608;2024-02-14T11:19:40;11.90;93.90
11925;DHT22;6022;48.768;18.608;2024-02-14T11:22:19;11.90;93.30
11925;DHT22;6022;48.768;18.608;2024-02-14T11:24:48;11.80;88.80
11925;DHT22;6022;48.768;18.608;2024-02-14T11:27:18;12.00;88.40
11925;DHT22;6022;48.768;18.608;2024-02-14T11:30:01;11.70;90.20
11925;DHT22;6022;48.768;18.608;2024-02-14T11:32:32;11.70;87.30
11925;DHT22;6022;48.768;18.608;2024-02-14T11:35:00;11.30;90.00
11925;DHT22;6022;48.768;18.608;2024-02-14T11:37:29;11.10;91.80
11925;DHT22;6022;48.768;18.608;2024-02-14T11:39:59;11.30;92.50
11925;DHT22;6022;48.768;18.608;2024-02-14T11:42:28;11.20;92.00
11925;DHT22;6022;48.768;18.608;2024-02-14T11:44:56;11.30;94.50
11925;DHT22;6022;48.768;18.608;2024-02-14T11:47:25;11.30;96.50
11925;DHT22;6022;48.768;18.608;2024-02-14T11:49:52;11.30;95.10
11925;DHT22;6022;48.768;18.608;2024-02-14T11:52:24;11.40;92.80
11925;DHT22;6022;48.768;18.608;2024-02-14T11:54:56;11.50;92.70
11925;DHT22;6022;48.768;18.608;2024-02-14T11:57:27;11.30;92.70
11925;DHT22;6022;48.768;18.608;2024-02-14T11:59:57;11.90;93.70
11925;DHT22;6022;48.768;18.608;2024-02-14T12:02:25;11.60;93.50
11925;DHT22;6022;48.768;18.608;2024-02-14T12:04:53;11.60;93.80
11925;DHT22;6022;48.768;18.608;2024-02-14T12:07:22;11.50;92.60
11925;DHT22;6022;48.768;18.608;2024-02-14T12:09:51;11.70;92.30
11925;DHT22;6022;48.768;18.608;2024-02-14T12:12:22;11.50;93.70
11925;DHT22;6022;48.768;18.608;2024-02-14T12:14:53;11.40;95.20
11925;DHT22;6022;48.768;18.608;2024-02-14T12:17:21;11.10;93.00
11925;DHT22;6022;48.768;18.608;2024-02-14T12:19:51;11.40;93.20
11925;DHT22;6022;48.768;18.608;2024-02-14T12:22:20;11.20;94.00
11925;DHT22;6022;48.768;18.608;2024-02-14T12:24:48;11.30;97.50
11925;DHT22;6022;48.768;18.608;2024-02-14T12:27:21;11.30;97.20
11925;DHT22;6022;48.768;18.608;2024-02-14T12:29:51;11.50;95.60
11925;DHT22;6022;48.768;18.608;2024-02-14T12:32:21;11.40;95.70
11925;DHT22;6022;48.768;18.608;2024-02-14T12:34:49;11.50;95.20
11925;DHT22;6022;48.768;18.608;2024-02-14T12:37:17;11.60;94.40
11925;DHT22;6022;48.768;18.608;2024-02-14T12:39:46;11.60;95.40
11925;DHT22;6022;48.768;18.608;2024-02-14T12:42:14;11.60;94.50
11925;DHT22;6022;48.768;18.608;2024-02-14T12:44:42;11.50;95.10
11925;DHT22;6022;48.768;18.608;2024-02-14T12:47:10;11.50;95.80
11925;DHT22;6022;48.768;18.608;2024-02-14T12:49:38;11.60;97.20
11925;DHT22;6022;48.768;18.608;2024-02-14T12:52:06;11.50;97.30
11925;DHT22;6022;48.768;18.608;2024-02-14T12:54:33;11.50;95.00
11925;DHT22;6022;48.768;18.608;2024-02-14T12:57:01;11.30;95.70
11925;DHT22;6022;48.768;18.608;2024-02-14T12:59:29;11.60;95.50
11925;DHT22;6022;48.768;18.608;2024-02-14T13:01:56;11.60;95.70
11925;DHT22;6022;48.768;18.608;2024-02-14T13:04:25;11.40;97.30
11925;DHT22;6022;48.768;18.608;2024-02-14T13:06:53;11.40;95.10
11925;DHT22;6022;48.768;18.608;2024-02-14T13:09:21;11.40;94.80
11925;DHT22;6022;48.768;18.608;2024-02-14T13:11:51;11.40;94.90
11925;DHT22;6022;48.768;18.608;2024-02-14T13:14:19;11.40;96.30
11925;DHT22;6022;48.768;18.608;2024-02-14T13:16:48;11.40;96.20
11925;DHT22;6022;48.768;18.608;2024-02-14T13:19:15;11.30;95.90
11925;DHT22;6022;48.768;18.608;2024-02-14T13:21:46;11.60;97.00
11925;DHT22;6022;48.768;18.608;2024-02-14T13:24:15;11.30;96.30
11925;DHT22;6022;48.768;18.608;2024-02-14T13:26:44;11.70;96.50
11925;DHT22;6022;48.768;18.608;2024-02-14T13:29:12;11.40;96.50
11925;DHT22;6022;48.768;18.608;2024-02-14T13:31:40;11.40;96.30
11925;DHT22;6022;48.768;18.608;2024-02-14T13:34:08;11.10;97.40
11925;DHT22;6022;48.768;18.608;2024-02-14T13:36:36;11.00;97.40
11925;DHT22;6022;48.768;18.608;2024-02-14T13:39:04;10.80;98.50
11925;DHT22;6022;48.768;18.608;2024-02-14T13:41:32;10.90;98.70
11925;DHT22;6022;48.768;18.608;2024-02-14T13:44:01;11.10;99.90
11925;DHT22;6022;48.768;18.608;2024-02-14T13:46:32;10.90;99.90
11925;DHT22;6022;48.768;18.608;2024-02-14T13:49:00;10.80;99.90
11925;DHT22;6022;48.768;18.608;2024-02-14T13:51:28;10.80;99.90
11925;DHT22;6022;48.768;18.608;2024-02-14T13:53:56;10.70;99.90
11925;DHT22;6022;48.768;18.608;2024-02-14T13:56:24;10.60;99.90
11925;DHT22;6022;48.768;18.608;2024-02-14T13:58:53;10.40;99.90
11925;DHT22;6022;48.768;18.608;2024-02-14T14:01:23;10.70;99.90
11925;DHT22;6022;48.768;18.608;2024-02-14T14:03:53;10.70;99.90
11925;DHT22;6022;48.768;18.608;2024-02-14T14:06:32;10.70;99.90
11925;DHT22;6022;48.768;18.608;2024-02-14T14:09:06;10.80;99.90
11925;DHT22;6022;48.768;18.608;2024-02-14T14:11:38;10.70;99.90
11925;DHT22;6022;48.768;18.608;2024-02-14T14:14:06;10.80;99.90
11925;DHT22;6022;48.768;18.608;2024-02-14T14:16:35;10.90;99.90
11925;DHT22;6022;48.768;18.608;2024-02-14T14:19:06;11.10;99.90
11925;DHT22;6022;48.768;18.608;2024-02-14T14:21:36;11.00;99.90
11925;DHT22;6022;48.768;18.608;2024-02-14T14:24:05;10.70;99.90
11925;DHT22;6022;48.768;18.608;2024-02-14T14:26:34;10.40;99.90
11925;DHT22;6022;48.768;18.608;2024-02-14T14:29:03;10.50;99.90
11925;DHT22;6022;48.768;18.608;2024-02-14T14:31:34;10.60;99.90
11925;DHT22;6022;48.768;18.608;2024-02-14T14:34:03;10.40;99.90
11925;DHT22;6022;48.768;18.608;2024-02-14T14:36:32;10.30;99.90
11925;DHT22;6022;48.768;18.608;2024-02-14T14:39:03;10.20;99.90
11925;DHT22;6022;48.768;18.608;2024-02-14T14:41:32;10.40;99.90
11925;DHT22;6022;48.768;18.608;2024-02-14T14:44:01;10.30;99.90
11925;DHT22;6022;48.768;18.608;2024-02-14T14:46:29;10.00;99.90
11925;DHT22;6022;48.768;18.608;2024-02-14T14:49:00;9.80;99.90
11925;DHT22;6022;48.768;18.608;2024-02-14T14:51:28;10.00;99.90
11925;DHT22;6022;48.768;18.608;2024-02-14T14:53:56;9.90;99.90
11925;DHT22;6022;48.768;18.608;2024-02-14T14:56:24;10.10;99.90
11925;DHT22;6022;48.768;18.608;2024-02-14T14:58:59;9.60;99.90
11925;DHT22;6022;48.768;18.608;2024-02-14T15:01:30;9.80;99.90
11925;DHT22;6022;48.768;18.608;2024-02-14T15:04:04;9.70;99.90
11925;DHT22;6022;48.768;18.608;2024-02-14T15:06:34;9.70;99.90
11925;DHT22;6022;48.768;18.608;2024-02-14T15:09:03;9.70;99.90
11925;DHT22;6022;48.768;18.608;2024-02-14T15:11:32;9.60;99.90
11925;DHT22;6022;48.768;18.608;2024-02-14T15:14:03;9.80;99.90
11925;DHT22;6022;48.768;18.608;2024-02-14T15:16:34;9.70;99.90
11925;DHT22;6022;48.768;18.608;2024-02-14T15:19:03;9.60;99.90
11925;DHT22;6022;48.768;18.608;2024-02-14T15:21:32;9.60;99.90
11925;DHT22;6022;48.768;18.608;2024-02-14T15:24:00;9.60;99.90
11925;DHT22;6022;48.768;18.608;2024-02-14T15:26:29;9.60;99.90
11925;DHT22;6022;48.768;18.608;2024-02-14T15:28:58;9.30;99.90
11925;DHT22;6022;48.768;18.608;2024-02-14T15:31:45;9.10;99.90
11925;DHT22;6022;48.768;18.608;2024-02-14T15:34:47;9.20;99.90
11925;DHT22;6022;48.768;18.608;2024-02-14T15:37:19;9.20;99.90
11925;DHT22;6022;48.768;18.608;2024-02-14T15:39:48;9.20;99.90
11925;DHT22;6022;48.768;18.608;2024-02-14T15:42:20;9.20;99.90
11925;DHT22;6022;48.768;18.608;2024-02-14T15:44:48;9.10;99.90
11925;DHT22;6022;48.768;18.608;2024-02-14T15:52:24;8.70;99.90
11925;DHT22;6022;48.768;18.608;2024-02-14T15:54:53;8.60;99.90